<?xml version="1.0" encoding="UTF-8"?>
<gpx xmlns="http://www.topografix.com/GPX/1/1" xmlns:xsi="http://www.w3.org/2001/XMLSchema-instance" version="1.1" xsi:schemaLocation="http://www.topografix.com/GPX/1/1 http://www.topografix.com/GPX/1/1/gpx.xsd">
  <metadata>
    <name>Hartness Triathlon 2026</name>
  </metadata>
  <trk>
    <name>Hartness Triathlon 2026</name>
    <trkseg>
      <trkpt lat="34.849391" lon="-82.259768">
        <ele>260.058466</ele>
        <time>2026-07-11T07:15:00.000Z</time>
      </trkpt>
      <trkpt lat="34.849511" lon="-82.259821">
        <ele>260.058465</ele>
        <time>2026-07-11T07:15:01.000Z</time>
      </trkpt>
      <trkpt lat="34.849823" lon="-82.259956">
        <ele>260.058467</ele>
        <time>2026-07-11T07:15:05.000Z</time>
      </trkpt>
      <trkpt lat="34.850019" lon="-82.260184">
        <ele>260.058457</ele>
        <time>2026-07-11T07:15:08.000Z</time>
      </trkpt>
      <trkpt lat="34.850123" lon="-82.260397">
        <ele>260.112849</ele>
        <time>2026-07-11T07:15:10.000Z</time>
      </trkpt>
      <trkpt lat="34.85035" lon="-82.260883">
        <ele>260.775582</ele>
        <time>2026-07-11T07:15:15.000Z</time>
      </trkpt>
      <trkpt lat="34.850573" lon="-82.261345">
        <ele>261.43861</ele>
        <time>2026-07-11T07:15:20.000Z</time>
      </trkpt>
      <trkpt lat="34.850885" lon="-82.261929">
        <ele>262.269817</ele>
        <time>2026-07-11T07:15:26.000Z</time>
      </trkpt>
      <trkpt lat="34.850911" lon="-82.262011">
        <ele>262.381893</ele>
        <time>2026-07-11T07:15:27.000Z</time>
      </trkpt>
      <trkpt lat="34.851164" lon="-82.262512">
        <ele>262.540618</ele>
        <time>2026-07-11T07:15:32.000Z</time>
      </trkpt>
      <trkpt lat="34.851161" lon="-82.262497">
        <ele>262.540628</ele>
        <time>2026-07-11T07:15:32.000Z</time>
      </trkpt>
      <trkpt lat="34.851483" lon="-82.263122">
        <ele>262.155088</ele>
        <time>2026-07-11T07:15:39.000Z</time>
      </trkpt>
      <trkpt lat="34.852615" lon="-82.262591">
        <ele>261.570552</ele>
        <time>2026-07-11T07:15:52.000Z</time>
      </trkpt>
      <trkpt lat="34.853112" lon="-82.262268">
        <ele>261.620723</ele>
        <time>2026-07-11T07:15:58.000Z</time>
      </trkpt>
      <trkpt lat="34.853487" lon="-82.261902">
        <ele>261.664329</ele>
        <time>2026-07-11T07:16:03.000Z</time>
      </trkpt>
      <trkpt lat="34.853863" lon="-82.261512">
        <ele>261.749119</ele>
        <time>2026-07-11T07:16:08.000Z</time>
      </trkpt>
      <trkpt lat="34.85404" lon="-82.261294">
        <ele>262.407862</ele>
        <time>2026-07-11T07:16:11.000Z</time>
      </trkpt>
      <trkpt lat="34.85431" lon="-82.260829">
        <ele>263.720293</ele>
        <time>2026-07-11T07:16:16.000Z</time>
      </trkpt>
      <trkpt lat="34.855234" lon="-82.259024">
        <ele>267.641863</ele>
        <time>2026-07-11T07:16:35.000Z</time>
      </trkpt>
      <trkpt lat="34.855633" lon="-82.258249">
        <ele>268.707311</ele>
        <time>2026-07-11T07:16:43.000Z</time>
      </trkpt>
      <trkpt lat="34.855951" lon="-82.257782">
        <ele>269.413271</ele>
        <time>2026-07-11T07:16:49.000Z</time>
      </trkpt>
      <trkpt lat="34.856381" lon="-82.257066">
        <ele>270.595576</ele>
        <time>2026-07-11T07:16:57.000Z</time>
      </trkpt>
      <trkpt lat="34.856606" lon="-82.256731">
        <ele>271.139447</ele>
        <time>2026-07-11T07:17:01.000Z</time>
      </trkpt>
      <trkpt lat="34.856765" lon="-82.256517">
        <ele>271.51438</ele>
        <time>2026-07-11T07:17:04.000Z</time>
      </trkpt>
      <trkpt lat="34.856945" lon="-82.256369">
        <ele>271.859564</ele>
        <time>2026-07-11T07:17:06.000Z</time>
      </trkpt>
      <trkpt lat="34.857232" lon="-82.256161">
        <ele>272.219675</ele>
        <time>2026-07-11T07:17:10.000Z</time>
      </trkpt>
      <trkpt lat="34.857115" lon="-82.255892">
        <ele>272.382303</ele>
        <time>2026-07-11T07:17:13.000Z</time>
      </trkpt>
      <trkpt lat="34.857021" lon="-82.255644">
        <ele>272.541567</ele>
        <time>2026-07-11T07:17:15.000Z</time>
      </trkpt>
      <trkpt lat="34.856939" lon="-82.255471">
        <ele>272.655905</ele>
        <time>2026-07-11T07:17:17.000Z</time>
      </trkpt>
      <trkpt lat="34.856807" lon="-82.255164">
        <ele>272.843805</ele>
        <time>2026-07-11T07:17:20.000Z</time>
      </trkpt>
      <trkpt lat="34.856628" lon="-82.254683">
        <ele>273.141515</ele>
        <time>2026-07-11T07:17:25.000Z</time>
      </trkpt>
      <trkpt lat="34.85649" lon="-82.25432">
        <ele>273.338</ele>
        <time>2026-07-11T07:17:29.000Z</time>
      </trkpt>
      <trkpt lat="34.856383" lon="-82.254022">
        <ele>273.43466</ele>
        <time>2026-07-11T07:17:32.000Z</time>
      </trkpt>
      <trkpt lat="34.856319" lon="-82.253836">
        <ele>273.495164</ele>
        <time>2026-07-11T07:17:34.000Z</time>
      </trkpt>
      <trkpt lat="34.855981" lon="-82.252768">
        <ele>273.828264</ele>
        <time>2026-07-11T07:17:44.000Z</time>
      </trkpt>
      <trkpt lat="34.855851" lon="-82.252531">
        <ele>273.908027</ele>
        <time>2026-07-11T07:17:47.000Z</time>
      </trkpt>
      <trkpt lat="34.855699" lon="-82.252017">
        <ele>273.565838</ele>
        <time>2026-07-11T07:17:52.000Z</time>
      </trkpt>
      <trkpt lat="34.855666" lon="-82.251696">
        <ele>273.280195</ele>
        <time>2026-07-11T07:17:55.000Z</time>
      </trkpt>
      <trkpt lat="34.855398" lon="-82.250901">
        <ele>272.48681</ele>
        <time>2026-07-11T07:18:03.000Z</time>
      </trkpt>
      <trkpt lat="34.855254" lon="-82.250382">
        <ele>271.970254</ele>
        <time>2026-07-11T07:18:08.000Z</time>
      </trkpt>
      <trkpt lat="34.855073" lon="-82.249579">
        <ele>270.981808</ele>
        <time>2026-07-11T07:18:16.000Z</time>
      </trkpt>
      <trkpt lat="34.854808" lon="-82.248252">
        <ele>269.319447</ele>
        <time>2026-07-11T07:18:28.000Z</time>
      </trkpt>
      <trkpt lat="34.854548" lon="-82.247004">
        <ele>268.942095</ele>
        <time>2026-07-11T07:18:40.000Z</time>
      </trkpt>
      <trkpt lat="34.854195" lon="-82.24524">
        <ele>268.313913</ele>
        <time>2026-07-11T07:18:57.000Z</time>
      </trkpt>
      <trkpt lat="34.853956" lon="-82.243961">
        <ele>267.735069</ele>
        <time>2026-07-11T07:19:09.000Z</time>
      </trkpt>
      <trkpt lat="34.853822" lon="-82.243188">
        <ele>267.46086</ele>
        <time>2026-07-11T07:19:16.000Z</time>
      </trkpt>
      <trkpt lat="34.853733" lon="-82.242526">
        <ele>267.227217</ele>
        <time>2026-07-11T07:19:22.000Z</time>
      </trkpt>
      <trkpt lat="34.853696" lon="-82.241919">
        <ele>267.015959</ele>
        <time>2026-07-11T07:19:28.000Z</time>
      </trkpt>
      <trkpt lat="34.853639" lon="-82.241164">
        <ele>267.341529</ele>
        <time>2026-07-11T07:19:35.000Z</time>
      </trkpt>
      <trkpt lat="34.853638" lon="-82.241099">
        <ele>267.379222</ele>
        <time>2026-07-11T07:19:36.000Z</time>
      </trkpt>
      <trkpt lat="34.853571" lon="-82.240347">
        <ele>267.837298</ele>
        <time>2026-07-11T07:19:43.000Z</time>
      </trkpt>
      <trkpt lat="34.853486" lon="-82.23898">
        <ele>268.030795</ele>
        <time>2026-07-11T07:19:56.000Z</time>
      </trkpt>
      <trkpt lat="34.853493" lon="-82.238931">
        <ele>268.011866</ele>
        <time>2026-07-11T07:19:56.000Z</time>
      </trkpt>
      <trkpt lat="34.853472" lon="-82.238542">
        <ele>267.841137</ele>
        <time>2026-07-11T07:20:00.000Z</time>
      </trkpt>
      <trkpt lat="34.853466" lon="-82.238483">
        <ele>267.819663</ele>
        <time>2026-07-11T07:20:01.000Z</time>
      </trkpt>
      <trkpt lat="34.853466" lon="-82.23836">
        <ele>267.764689</ele>
        <time>2026-07-11T07:20:02.000Z</time>
      </trkpt>
      <trkpt lat="34.853479" lon="-82.238">
        <ele>267.608766</ele>
        <time>2026-07-11T07:20:05.000Z</time>
      </trkpt>
      <trkpt lat="34.853482" lon="-82.237943">
        <ele>267.586841</ele>
        <time>2026-07-11T07:20:06.000Z</time>
      </trkpt>
      <trkpt lat="34.853472" lon="-82.237707">
        <ele>267.487555</ele>
        <time>2026-07-11T07:20:08.000Z</time>
      </trkpt>
      <trkpt lat="34.853495" lon="-82.237546">
        <ele>267.4115</ele>
        <time>2026-07-11T07:20:09.000Z</time>
      </trkpt>
      <trkpt lat="34.853523" lon="-82.236116">
        <ele>265.212152</ele>
        <time>2026-07-11T07:20:22.000Z</time>
      </trkpt>
      <trkpt lat="34.853522" lon="-82.236045">
        <ele>265.075244</ele>
        <time>2026-07-11T07:20:23.000Z</time>
      </trkpt>
      <trkpt lat="34.853564" lon="-82.235066">
        <ele>263.36236</ele>
        <time>2026-07-11T07:20:32.000Z</time>
      </trkpt>
      <trkpt lat="34.85358" lon="-82.234643">
        <ele>262.402113</ele>
        <time>2026-07-11T07:20:36.000Z</time>
      </trkpt>
      <trkpt lat="34.853548" lon="-82.234094">
        <ele>261.20062</ele>
        <time>2026-07-11T07:20:41.000Z</time>
      </trkpt>
      <trkpt lat="34.853476" lon="-82.233587">
        <ele>260.058243</ele>
        <time>2026-07-11T07:20:46.000Z</time>
      </trkpt>
      <trkpt lat="34.853311" lon="-82.233012">
        <ele>258.630598</ele>
        <time>2026-07-11T07:20:52.000Z</time>
      </trkpt>
      <trkpt lat="34.853183" lon="-82.23269">
        <ele>257.663488</ele>
        <time>2026-07-11T07:20:55.000Z</time>
      </trkpt>
      <trkpt lat="34.853034" lon="-82.232409">
        <ele>256.800117</ele>
        <time>2026-07-11T07:20:58.000Z</time>
      </trkpt>
      <trkpt lat="34.85267" lon="-82.23188">
        <ele>254.916595</ele>
        <time>2026-07-11T07:21:04.000Z</time>
      </trkpt>
      <trkpt lat="34.852214" lon="-82.231393">
        <ele>252.944263</ele>
        <time>2026-07-11T07:21:11.000Z</time>
      </trkpt>
      <trkpt lat="34.851906" lon="-82.23112">
        <ele>252.147516</ele>
        <time>2026-07-11T07:21:15.000Z</time>
      </trkpt>
      <trkpt lat="34.851688" lon="-82.230928">
        <ele>251.595065</ele>
        <time>2026-07-11T07:21:18.000Z</time>
      </trkpt>
      <trkpt lat="34.851635" lon="-82.230874">
        <ele>251.45476</ele>
        <time>2026-07-11T07:21:19.000Z</time>
      </trkpt>
      <trkpt lat="34.851498" lon="-82.23071">
        <ele>251.05913</ele>
        <time>2026-07-11T07:21:21.000Z</time>
      </trkpt>
      <trkpt lat="34.851367" lon="-82.230524">
        <ele>250.628994</ele>
        <time>2026-07-11T07:21:23.000Z</time>
      </trkpt>
      <trkpt lat="34.851279" lon="-82.23038">
        <ele>250.324499</ele>
        <time>2026-07-11T07:21:25.000Z</time>
      </trkpt>
      <trkpt lat="34.851131" lon="-82.230622">
        <ele>249.82445</ele>
        <time>2026-07-11T07:21:28.000Z</time>
      </trkpt>
      <trkpt lat="34.851005" lon="-82.230773">
        <ele>249.449935</ele>
        <time>2026-07-11T07:21:30.000Z</time>
      </trkpt>
      <trkpt lat="34.850816" lon="-82.230967">
        <ele>248.950133</ele>
        <time>2026-07-11T07:21:33.000Z</time>
      </trkpt>
      <trkpt lat="34.850756" lon="-82.230993">
        <ele>248.833253</ele>
        <time>2026-07-11T07:21:34.000Z</time>
      </trkpt>
      <trkpt lat="34.850654" lon="-82.231024">
        <ele>248.647031</ele>
        <time>2026-07-11T07:21:35.000Z</time>
      </trkpt>
      <trkpt lat="34.850275" lon="-82.231391">
        <ele>247.709004</ele>
        <time>2026-07-11T07:21:40.000Z</time>
      </trkpt>
      <trkpt lat="34.849969" lon="-82.231672">
        <ele>246.9512</ele>
        <time>2026-07-11T07:21:44.000Z</time>
      </trkpt>
      <trkpt lat="34.849725" lon="-82.23193">
        <ele>246.318287</ele>
        <time>2026-07-11T07:21:48.000Z</time>
      </trkpt>
      <trkpt lat="34.849566" lon="-82.232226">
        <ele>245.757442</ele>
        <time>2026-07-11T07:21:51.000Z</time>
      </trkpt>
      <trkpt lat="34.849485" lon="-82.232391">
        <ele>246.026364</ele>
        <time>2026-07-11T07:21:53.000Z</time>
      </trkpt>
      <trkpt lat="34.849407" lon="-82.232651">
        <ele>246.573956</ele>
        <time>2026-07-11T07:21:56.000Z</time>
      </trkpt>
      <trkpt lat="34.849341" lon="-82.233067">
        <ele>247.472431</ele>
        <time>2026-07-11T07:22:00.000Z</time>
      </trkpt>
      <trkpt lat="34.849278" lon="-82.234077">
        <ele>249.56191</ele>
        <time>2026-07-11T07:22:09.000Z</time>
      </trkpt>
      <trkpt lat="34.849234" lon="-82.23482">
        <ele>251.744815</ele>
        <time>2026-07-11T07:22:16.000Z</time>
      </trkpt>
      <trkpt lat="34.849136" lon="-82.235233">
        <ele>253.32972</ele>
        <time>2026-07-11T07:22:20.000Z</time>
      </trkpt>
      <trkpt lat="34.849047" lon="-82.235458">
        <ele>254.215845</ele>
        <time>2026-07-11T07:22:22.000Z</time>
      </trkpt>
      <trkpt lat="34.848794" lon="-82.235941">
        <ele>256.253783</ele>
        <time>2026-07-11T07:22:27.000Z</time>
      </trkpt>
      <trkpt lat="34.848582" lon="-82.236211">
        <ele>257.590244</ele>
        <time>2026-07-11T07:22:30.000Z</time>
      </trkpt>
      <trkpt lat="34.848457" lon="-82.23633">
        <ele>258.220054</ele>
        <time>2026-07-11T07:22:32.000Z</time>
      </trkpt>
      <trkpt lat="34.84793" lon="-82.236698">
        <ele>259.218843</ele>
        <time>2026-07-11T07:22:39.000Z</time>
      </trkpt>
      <trkpt lat="34.847595" lon="-82.236918">
        <ele>259.837466</ele>
        <time>2026-07-11T07:22:43.000Z</time>
      </trkpt>
      <trkpt lat="34.847499" lon="-82.236987">
        <ele>260.04742</ele>
        <time>2026-07-11T07:22:44.000Z</time>
      </trkpt>
      <trkpt lat="34.847007" lon="-82.237372">
        <ele>260.989287</ele>
        <time>2026-07-11T07:22:51.000Z</time>
      </trkpt>
      <trkpt lat="34.846243" lon="-82.237984">
        <ele>262.412531</ele>
        <time>2026-07-11T07:23:01.000Z</time>
      </trkpt>
      <trkpt lat="34.845913" lon="-82.238246">
        <ele>263.034876</ele>
        <time>2026-07-11T07:23:05.000Z</time>
      </trkpt>
      <trkpt lat="34.845814" lon="-82.238313">
        <ele>263.210404</ele>
        <time>2026-07-11T07:23:06.000Z</time>
      </trkpt>
      <trkpt lat="34.845526" lon="-82.238563">
        <ele>263.766152</ele>
        <time>2026-07-11T07:23:10.000Z</time>
      </trkpt>
      <trkpt lat="34.845014" lon="-82.238974">
        <ele>264.438758</ele>
        <time>2026-07-11T07:23:17.000Z</time>
      </trkpt>
      <trkpt lat="34.844535" lon="-82.23936">
        <ele>265.021988</ele>
        <time>2026-07-11T07:23:23.000Z</time>
      </trkpt>
      <trkpt lat="34.843838" lon="-82.23994">
        <ele>266.079638</ele>
        <time>2026-07-11T07:23:32.000Z</time>
      </trkpt>
      <trkpt lat="34.843209" lon="-82.24049">
        <ele>267.999832</ele>
        <time>2026-07-11T07:23:41.000Z</time>
      </trkpt>
      <trkpt lat="34.842928" lon="-82.240805">
        <ele>268.975764</ele>
        <time>2026-07-11T07:23:45.000Z</time>
      </trkpt>
      <trkpt lat="34.842654" lon="-82.241112">
        <ele>269.901768</ele>
        <time>2026-07-11T07:23:49.000Z</time>
      </trkpt>
      <trkpt lat="34.842303" lon="-82.241649">
        <ele>271.314748</ele>
        <time>2026-07-11T07:23:55.000Z</time>
      </trkpt>
      <trkpt lat="34.841709" lon="-82.242744">
        <ele>273.944554</ele>
        <time>2026-07-11T07:24:07.000Z</time>
      </trkpt>
      <trkpt lat="34.841218" lon="-82.243547">
        <ele>275.470632</ele>
        <time>2026-07-11T07:24:16.000Z</time>
      </trkpt>
      <trkpt lat="34.840632" lon="-82.244571">
        <ele>277.024043</ele>
        <time>2026-07-11T07:24:27.000Z</time>
      </trkpt>
      <trkpt lat="34.840531" lon="-82.244804">
        <ele>277.341151</ele>
        <time>2026-07-11T07:24:29.000Z</time>
      </trkpt>
      <trkpt lat="34.840416" lon="-82.245159">
        <ele>277.996382</ele>
        <time>2026-07-11T07:24:32.000Z</time>
      </trkpt>
      <trkpt lat="34.840315" lon="-82.245813">
        <ele>279.167693</ele>
        <time>2026-07-11T07:24:38.000Z</time>
      </trkpt>
      <trkpt lat="34.840273" lon="-82.246983">
        <ele>281.20107</ele>
        <time>2026-07-11T07:24:49.000Z</time>
      </trkpt>
      <trkpt lat="34.840191" lon="-82.248192">
        <ele>283.459908</ele>
        <time>2026-07-11T07:25:00.000Z</time>
      </trkpt>
      <trkpt lat="34.840144" lon="-82.248817">
        <ele>284.618848</ele>
        <time>2026-07-11T07:25:06.000Z</time>
      </trkpt>
      <trkpt lat="34.840061" lon="-82.249247">
        <ele>285.359933</ele>
        <time>2026-07-11T07:25:10.000Z</time>
      </trkpt>
      <trkpt lat="34.839913" lon="-82.249671">
        <ele>285.697189</ele>
        <time>2026-07-11T07:25:14.000Z</time>
      </trkpt>
      <trkpt lat="34.839775" lon="-82.249906">
        <ele>285.899595</ele>
        <time>2026-07-11T07:25:17.000Z</time>
      </trkpt>
      <trkpt lat="34.839632" lon="-82.250139">
        <ele>286.120254</ele>
        <time>2026-07-11T07:25:20.000Z</time>
      </trkpt>
      <trkpt lat="34.839377" lon="-82.250407">
        <ele>286.419359</ele>
        <time>2026-07-11T07:25:24.000Z</time>
      </trkpt>
      <trkpt lat="34.839107" lon="-82.250596">
        <ele>286.694775</ele>
        <time>2026-07-11T07:25:27.000Z</time>
      </trkpt>
      <trkpt lat="34.838899" lon="-82.250721">
        <ele>286.899815</ele>
        <time>2026-07-11T07:25:30.000Z</time>
      </trkpt>
      <trkpt lat="34.838308" lon="-82.250969">
        <ele>287.041006</ele>
        <time>2026-07-11T07:25:37.000Z</time>
      </trkpt>
      <trkpt lat="34.837131" lon="-82.25146">
        <ele>287.250946</ele>
        <time>2026-07-11T07:25:51.000Z</time>
      </trkpt>
      <trkpt lat="34.836777" lon="-82.251598">
        <ele>287.025109</ele>
        <time>2026-07-11T07:25:55.000Z</time>
      </trkpt>
      <trkpt lat="34.836566" lon="-82.251683">
        <ele>286.886267</ele>
        <time>2026-07-11T07:25:57.000Z</time>
      </trkpt>
      <trkpt lat="34.836501" lon="-82.251719">
        <ele>286.840098</ele>
        <time>2026-07-11T07:25:58.000Z</time>
      </trkpt>
      <trkpt lat="34.836431" lon="-82.251739">
        <ele>286.789118</ele>
        <time>2026-07-11T07:25:59.000Z</time>
      </trkpt>
      <trkpt lat="34.836018" lon="-82.251924">
        <ele>286.513392</ele>
        <time>2026-07-11T07:26:04.000Z</time>
      </trkpt>
      <trkpt lat="34.835797" lon="-82.252011">
        <ele>286.37531</ele>
        <time>2026-07-11T07:26:07.000Z</time>
      </trkpt>
      <trkpt lat="34.835723" lon="-82.252057">
        <ele>286.325565</ele>
        <time>2026-07-11T07:26:08.000Z</time>
      </trkpt>
      <trkpt lat="34.835043" lon="-82.252377">
        <ele>285.957075</ele>
        <time>2026-07-11T07:26:16.000Z</time>
      </trkpt>
      <trkpt lat="34.834707" lon="-82.252542">
        <ele>285.805702</ele>
        <time>2026-07-11T07:26:20.000Z</time>
      </trkpt>
      <trkpt lat="34.834326" lon="-82.25275">
        <ele>285.623042</ele>
        <time>2026-07-11T07:26:25.000Z</time>
      </trkpt>
      <trkpt lat="34.834" lon="-82.252909">
        <ele>285.47406</ele>
        <time>2026-07-11T07:26:29.000Z</time>
      </trkpt>
      <trkpt lat="34.833909" lon="-82.252955">
        <ele>285.432948</ele>
        <time>2026-07-11T07:26:30.000Z</time>
      </trkpt>
      <trkpt lat="34.833315" lon="-82.253266">
        <ele>285.561853</ele>
        <time>2026-07-11T07:26:37.000Z</time>
      </trkpt>
      <trkpt lat="34.83287" lon="-82.253506">
        <ele>285.697664</ele>
        <time>2026-07-11T07:26:42.000Z</time>
      </trkpt>
      <trkpt lat="34.832509" lon="-82.253695">
        <ele>285.806281</ele>
        <time>2026-07-11T07:26:46.000Z</time>
      </trkpt>
      <trkpt lat="34.83106" lon="-82.254279">
        <ele>285.842621</ele>
        <time>2026-07-11T07:27:03.000Z</time>
      </trkpt>
      <trkpt lat="34.830605" lon="-82.254482">
        <ele>285.817165</ele>
        <time>2026-07-11T07:27:08.000Z</time>
      </trkpt>
      <trkpt lat="34.829693" lon="-82.254855">
        <ele>284.836257</ele>
        <time>2026-07-11T07:27:19.000Z</time>
      </trkpt>
      <trkpt lat="34.829652" lon="-82.256785">
        <ele>282.539466</ele>
        <time>2026-07-11T07:27:37.000Z</time>
      </trkpt>
      <trkpt lat="34.82964" lon="-82.257478">
        <ele>281.496475</ele>
        <time>2026-07-11T07:27:43.000Z</time>
      </trkpt>
      <trkpt lat="34.829602" lon="-82.258324">
        <ele>280.135671</ele>
        <time>2026-07-11T07:27:51.000Z</time>
      </trkpt>
      <trkpt lat="34.829606" lon="-82.25848">
        <ele>279.789869</ele>
        <time>2026-07-11T07:27:52.000Z</time>
      </trkpt>
      <trkpt lat="34.829577" lon="-82.259148">
        <ele>278.292681</ele>
        <time>2026-07-11T07:27:58.000Z</time>
      </trkpt>
      <trkpt lat="34.829565" lon="-82.259495">
        <ele>277.52324</ele>
        <time>2026-07-11T07:28:01.000Z</time>
      </trkpt>
      <trkpt lat="34.829609" lon="-82.260191">
        <ele>275.963203</ele>
        <time>2026-07-11T07:28:07.000Z</time>
      </trkpt>
      <trkpt lat="34.829656" lon="-82.260672">
        <ele>274.835541</ele>
        <time>2026-07-11T07:28:11.000Z</time>
      </trkpt>
      <trkpt lat="34.829967" lon="-82.262438">
        <ele>270.340539</ele>
        <time>2026-07-11T07:28:27.000Z</time>
      </trkpt>
      <trkpt lat="34.830001" lon="-82.26258">
        <ele>270.020869</ele>
        <time>2026-07-11T07:28:28.000Z</time>
      </trkpt>
      <trkpt lat="34.830018" lon="-82.262681">
        <ele>270.023776</ele>
        <time>2026-07-11T07:28:29.000Z</time>
      </trkpt>
      <trkpt lat="34.830255" lon="-82.263904">
        <ele>270.058032</ele>
        <time>2026-07-11T07:28:40.000Z</time>
      </trkpt>
      <trkpt lat="34.830264" lon="-82.264305">
        <ele>270.069131</ele>
        <time>2026-07-11T07:28:44.000Z</time>
      </trkpt>
      <trkpt lat="34.83017" lon="-82.264944">
        <ele>270.662435</ele>
        <time>2026-07-11T07:28:50.000Z</time>
      </trkpt>
      <trkpt lat="34.830192" lon="-82.265445">
        <ele>271.891177</ele>
        <time>2026-07-11T07:28:55.000Z</time>
      </trkpt>
      <trkpt lat="34.830217" lon="-82.26561">
        <ele>272.324978</ele>
        <time>2026-07-11T07:28:57.000Z</time>
      </trkpt>
      <trkpt lat="34.830544" lon="-82.266428">
        <ele>274.582131</ele>
        <time>2026-07-11T07:29:05.000Z</time>
      </trkpt>
      <trkpt lat="34.830728" lon="-82.266858">
        <ele>275.665173</ele>
        <time>2026-07-11T07:29:09.000Z</time>
      </trkpt>
      <trkpt lat="34.83096" lon="-82.26734">
        <ele>276.452572</ele>
        <time>2026-07-11T07:29:14.000Z</time>
      </trkpt>
      <trkpt lat="34.831163" lon="-82.26779">
        <ele>277.17638</ele>
        <time>2026-07-11T07:29:19.000Z</time>
      </trkpt>
      <trkpt lat="34.831538" lon="-82.268587">
        <ele>278.45792</ele>
        <time>2026-07-11T07:29:27.000Z</time>
      </trkpt>
      <trkpt lat="34.832295" lon="-82.27012">
        <ele>280.751522</ele>
        <time>2026-07-11T07:29:43.000Z</time>
      </trkpt>
      <trkpt lat="34.832566" lon="-82.270567">
        <ele>281.504303</ele>
        <time>2026-07-11T07:29:48.000Z</time>
      </trkpt>
      <trkpt lat="34.832675" lon="-82.270739">
        <ele>281.958927</ele>
        <time>2026-07-11T07:29:50.000Z</time>
      </trkpt>
      <trkpt lat="34.832903" lon="-82.271076">
        <ele>282.889577</ele>
        <time>2026-07-11T07:29:54.000Z</time>
      </trkpt>
      <trkpt lat="34.832994" lon="-82.271198">
        <ele>283.258994</ele>
        <time>2026-07-11T07:29:56.000Z</time>
      </trkpt>
      <trkpt lat="34.833085" lon="-82.271322">
        <ele>283.575145</ele>
        <time>2026-07-11T07:29:58.000Z</time>
      </trkpt>
      <trkpt lat="34.833283" lon="-82.271569">
        <ele>284.334186</ele>
        <time>2026-07-11T07:30:01.000Z</time>
      </trkpt>
      <trkpt lat="34.833552" lon="-82.271923">
        <ele>285.349335</ele>
        <time>2026-07-11T07:30:05.000Z</time>
      </trkpt>
      <trkpt lat="34.833675" lon="-82.272125">
        <ele>285.902571</ele>
        <time>2026-07-11T07:30:07.000Z</time>
      </trkpt>
      <trkpt lat="34.833741" lon="-82.272212">
        <ele>286.121393</ele>
        <time>2026-07-11T07:30:08.000Z</time>
      </trkpt>
      <trkpt lat="34.834091" lon="-82.272713">
        <ele>287.201952</ele>
        <time>2026-07-11T07:30:14.000Z</time>
      </trkpt>
      <trkpt lat="34.834119" lon="-82.272745">
        <ele>287.295007</ele>
        <time>2026-07-11T07:30:14.000Z</time>
      </trkpt>
      <trkpt lat="34.83457" lon="-82.273445">
        <ele>288.787514</ele>
        <time>2026-07-11T07:30:22.000Z</time>
      </trkpt>
      <trkpt lat="34.835115" lon="-82.274228">
        <ele>289.811002</ele>
        <time>2026-07-11T07:30:31.000Z</time>
      </trkpt>
      <trkpt lat="34.835155" lon="-82.274314">
        <ele>289.838178</ele>
        <time>2026-07-11T07:30:32.000Z</time>
      </trkpt>
      <trkpt lat="34.835217" lon="-82.274397">
        <ele>289.870491</ele>
        <time>2026-07-11T07:30:33.000Z</time>
      </trkpt>
      <trkpt lat="34.8354" lon="-82.274679">
        <ele>289.963735</ele>
        <time>2026-07-11T07:30:36.000Z</time>
      </trkpt>
      <trkpt lat="34.835415" lon="-82.274706">
        <ele>289.974633</ele>
        <time>2026-07-11T07:30:36.000Z</time>
      </trkpt>
      <trkpt lat="34.835644" lon="-82.275032">
        <ele>290.086597</ele>
        <time>2026-07-11T07:30:40.000Z</time>
      </trkpt>
      <trkpt lat="34.835859" lon="-82.275337">
        <ele>290.189735</ele>
        <time>2026-07-11T07:30:44.000Z</time>
      </trkpt>
      <trkpt lat="34.835915" lon="-82.275408">
        <ele>290.220809</ele>
        <time>2026-07-11T07:30:45.000Z</time>
      </trkpt>
      <trkpt lat="34.836041" lon="-82.275605">
        <ele>290.226747</ele>
        <time>2026-07-11T07:30:47.000Z</time>
      </trkpt>
      <trkpt lat="34.836187" lon="-82.275823">
        <ele>290.102519</ele>
        <time>2026-07-11T07:30:50.000Z</time>
      </trkpt>
      <trkpt lat="34.836391" lon="-82.276132">
        <ele>289.916127</ele>
        <time>2026-07-11T07:30:54.000Z</time>
      </trkpt>
      <trkpt lat="34.836553" lon="-82.276485">
        <ele>289.729448</ele>
        <time>2026-07-11T07:30:58.000Z</time>
      </trkpt>
      <trkpt lat="34.836627" lon="-82.276795">
        <ele>289.577857</ele>
        <time>2026-07-11T07:31:01.000Z</time>
      </trkpt>
      <trkpt lat="34.836654" lon="-82.277124">
        <ele>289.431079</ele>
        <time>2026-07-11T07:31:04.000Z</time>
      </trkpt>
      <trkpt lat="34.836628" lon="-82.277334">
        <ele>289.335292</ele>
        <time>2026-07-11T07:31:06.000Z</time>
      </trkpt>
      <trkpt lat="34.836565" lon="-82.277762">
        <ele>289.598246</ele>
        <time>2026-07-11T07:31:10.000Z</time>
      </trkpt>
      <trkpt lat="34.836538" lon="-82.277849">
        <ele>289.730162</ele>
        <time>2026-07-11T07:31:11.000Z</time>
      </trkpt>
      <trkpt lat="34.836288" lon="-82.278904">
        <ele>291.154013</ele>
        <time>2026-07-11T07:31:21.000Z</time>
      </trkpt>
      <trkpt lat="34.836286" lon="-82.278923">
        <ele>291.198416</ele>
        <time>2026-07-11T07:31:21.000Z</time>
      </trkpt>
      <trkpt lat="34.836292" lon="-82.279038">
        <ele>291.337997</ele>
        <time>2026-07-11T07:31:22.000Z</time>
      </trkpt>
      <trkpt lat="34.83622" lon="-82.279464">
        <ele>291.926858</ele>
        <time>2026-07-11T07:31:26.000Z</time>
      </trkpt>
      <trkpt lat="34.836156" lon="-82.279959">
        <ele>292.187621</ele>
        <time>2026-07-11T07:31:31.000Z</time>
      </trkpt>
      <trkpt lat="34.836174" lon="-82.28018">
        <ele>292.221619</ele>
        <time>2026-07-11T07:31:33.000Z</time>
      </trkpt>
      <trkpt lat="34.83623" lon="-82.280376">
        <ele>292.254324</ele>
        <time>2026-07-11T07:31:35.000Z</time>
      </trkpt>
      <trkpt lat="34.836278" lon="-82.280716">
        <ele>292.309738</ele>
        <time>2026-07-11T07:31:38.000Z</time>
      </trkpt>
      <trkpt lat="34.83634" lon="-82.281141">
        <ele>292.379504</ele>
        <time>2026-07-11T07:31:42.000Z</time>
      </trkpt>
      <trkpt lat="34.836345" lon="-82.281276">
        <ele>292.401876</ele>
        <time>2026-07-11T07:31:43.000Z</time>
      </trkpt>
      <trkpt lat="34.836351" lon="-82.281408">
        <ele>292.421704</ele>
        <time>2026-07-11T07:31:44.000Z</time>
      </trkpt>
      <trkpt lat="34.836422" lon="-82.281775">
        <ele>292.483192</ele>
        <time>2026-07-11T07:31:47.000Z</time>
      </trkpt>
      <trkpt lat="34.836523" lon="-82.28234">
        <ele>291.229108</ele>
        <time>2026-07-11T07:31:52.000Z</time>
      </trkpt>
      <trkpt lat="34.836804" lon="-82.283912">
        <ele>287.72968</ele>
        <time>2026-07-11T07:32:07.000Z</time>
      </trkpt>
      <trkpt lat="34.836857" lon="-82.284126">
        <ele>287.325235</ele>
        <time>2026-07-11T07:32:09.000Z</time>
      </trkpt>
      <trkpt lat="34.836929" lon="-82.284686">
        <ele>286.251357</ele>
        <time>2026-07-11T07:32:14.000Z</time>
      </trkpt>
      <trkpt lat="34.837043" lon="-82.285337">
        <ele>284.978273</ele>
        <time>2026-07-11T07:32:20.000Z</time>
      </trkpt>
      <trkpt lat="34.837081" lon="-82.285518">
        <ele>284.609736</ele>
        <time>2026-07-11T07:32:22.000Z</time>
      </trkpt>
      <trkpt lat="34.837311" lon="-82.286834">
        <ele>283.258986</ele>
        <time>2026-07-11T07:32:34.000Z</time>
      </trkpt>
      <trkpt lat="34.837389" lon="-82.287216">
        <ele>283.112656</ele>
        <time>2026-07-11T07:32:38.000Z</time>
      </trkpt>
      <trkpt lat="34.83758" lon="-82.287902">
        <ele>282.839106</ele>
        <time>2026-07-11T07:32:45.000Z</time>
      </trkpt>
      <trkpt lat="34.837698" lon="-82.288194">
        <ele>282.768078</ele>
        <time>2026-07-11T07:32:48.000Z</time>
      </trkpt>
      <trkpt lat="34.837844" lon="-82.288536">
        <ele>283.337354</ele>
        <time>2026-07-11T07:32:52.000Z</time>
      </trkpt>
      <trkpt lat="34.838309" lon="-82.289401">
        <ele>284.829372</ele>
        <time>2026-07-11T07:33:01.000Z</time>
      </trkpt>
      <trkpt lat="34.838542" lon="-82.289764">
        <ele>285.511731</ele>
        <time>2026-07-11T07:33:05.000Z</time>
      </trkpt>
      <trkpt lat="34.838786" lon="-82.290064">
        <ele>286.182487</ele>
        <time>2026-07-11T07:33:09.000Z</time>
      </trkpt>
      <trkpt lat="34.839166" lon="-82.290521">
        <ele>287.401524</ele>
        <time>2026-07-11T07:33:15.000Z</time>
      </trkpt>
      <trkpt lat="34.83964" lon="-82.29099">
        <ele>288.800352</ele>
        <time>2026-07-11T07:33:22.000Z</time>
      </trkpt>
      <trkpt lat="34.839837" lon="-82.291187">
        <ele>289.369215</ele>
        <time>2026-07-11T07:33:25.000Z</time>
      </trkpt>
      <trkpt lat="34.839848" lon="-82.291191">
        <ele>289.423149</ele>
        <time>2026-07-11T07:33:25.000Z</time>
      </trkpt>
      <trkpt lat="34.839965" lon="-82.291285">
        <ele>289.733778</ele>
        <time>2026-07-11T07:33:27.000Z</time>
      </trkpt>
      <trkpt lat="34.840057" lon="-82.291373">
        <ele>290.011183</ele>
        <time>2026-07-11T07:33:28.000Z</time>
      </trkpt>
      <trkpt lat="34.840417" lon="-82.29165">
        <ele>290.285154</ele>
        <time>2026-07-11T07:33:33.000Z</time>
      </trkpt>
      <trkpt lat="34.840848" lon="-82.291905">
        <ele>290.591161</ele>
        <time>2026-07-11T07:33:38.000Z</time>
      </trkpt>
      <trkpt lat="34.842087" lon="-82.292358">
        <ele>291.168395</ele>
        <time>2026-07-11T07:33:52.000Z</time>
      </trkpt>
      <trkpt lat="34.842537" lon="-82.29262">
        <ele>291.164344</ele>
        <time>2026-07-11T07:33:58.000Z</time>
      </trkpt>
      <trkpt lat="34.8427" lon="-82.29274">
        <ele>291.162838</ele>
        <time>2026-07-11T07:34:00.000Z</time>
      </trkpt>
      <trkpt lat="34.843031" lon="-82.29324">
        <ele>291.158388</ele>
        <time>2026-07-11T07:34:06.000Z</time>
      </trkpt>
      <trkpt lat="34.843151" lon="-82.29347">
        <ele>291.13365</ele>
        <time>2026-07-11T07:34:08.000Z</time>
      </trkpt>
      <trkpt lat="34.84367" lon="-82.294882">
        <ele>289.998405</ele>
        <time>2026-07-11T07:34:22.000Z</time>
      </trkpt>
      <trkpt lat="34.843933" lon="-82.295603">
        <ele>289.777387</ele>
        <time>2026-07-11T07:34:29.000Z</time>
      </trkpt>
      <trkpt lat="34.844281" lon="-82.296521">
        <ele>290.973637</ele>
        <time>2026-07-11T07:34:38.000Z</time>
      </trkpt>
      <trkpt lat="34.844408" lon="-82.296831">
        <ele>291.385723</ele>
        <time>2026-07-11T07:34:41.000Z</time>
      </trkpt>
      <trkpt lat="34.845277" lon="-82.299157">
        <ele>299.410231</ele>
        <time>2026-07-11T07:35:04.000Z</time>
      </trkpt>
      <trkpt lat="34.845585" lon="-82.299952">
        <ele>300.735201</ele>
        <time>2026-07-11T07:35:12.000Z</time>
      </trkpt>
      <trkpt lat="34.846019" lon="-82.301118">
        <ele>301.215072</ele>
        <time>2026-07-11T07:35:24.000Z</time>
      </trkpt>
      <trkpt lat="34.846147" lon="-82.301056">
        <ele>301.275312</ele>
        <time>2026-07-11T07:35:26.000Z</time>
      </trkpt>
      <trkpt lat="34.846652" lon="-82.300797">
        <ele>300.162598</ele>
        <time>2026-07-11T07:35:32.000Z</time>
      </trkpt>
      <trkpt lat="34.846802" lon="-82.300685">
        <ele>299.617686</ele>
        <time>2026-07-11T07:35:34.000Z</time>
      </trkpt>
      <trkpt lat="34.847209" lon="-82.300308">
        <ele>298.146874</ele>
        <time>2026-07-11T07:35:40.000Z</time>
      </trkpt>
      <trkpt lat="34.847855" lon="-82.299731">
        <ele>295.9187</ele>
        <time>2026-07-11T07:35:49.000Z</time>
      </trkpt>
      <trkpt lat="34.847927" lon="-82.299649">
        <ele>295.710328</ele>
        <time>2026-07-11T07:35:50.000Z</time>
      </trkpt>
      <trkpt lat="34.848338" lon="-82.29922">
        <ele>294.661781</ele>
        <time>2026-07-11T07:35:56.000Z</time>
      </trkpt>
      <trkpt lat="34.848499" lon="-82.298972">
        <ele>294.183544</ele>
        <time>2026-07-11T07:35:59.000Z</time>
      </trkpt>
      <trkpt lat="34.848624" lon="-82.298713">
        <ele>293.677681</ele>
        <time>2026-07-11T07:36:02.000Z</time>
      </trkpt>
      <trkpt lat="34.848775" lon="-82.298306">
        <ele>292.979097</ele>
        <time>2026-07-11T07:36:06.000Z</time>
      </trkpt>
      <trkpt lat="34.848998" lon="-82.297652">
        <ele>292.765692</ele>
        <time>2026-07-11T07:36:12.000Z</time>
      </trkpt>
      <trkpt lat="34.849286" lon="-82.29673">
        <ele>293.054483</ele>
        <time>2026-07-11T07:36:21.000Z</time>
      </trkpt>
      <trkpt lat="34.849563" lon="-82.295806">
        <ele>293.012402</ele>
        <time>2026-07-11T07:36:30.000Z</time>
      </trkpt>
      <trkpt lat="34.849623" lon="-82.2956">
        <ele>292.808033</ele>
        <time>2026-07-11T07:36:32.000Z</time>
      </trkpt>
      <trkpt lat="34.849785" lon="-82.29498">
        <ele>292.195873</ele>
        <time>2026-07-11T07:36:38.000Z</time>
      </trkpt>
      <trkpt lat="34.849794" lon="-82.294905">
        <ele>292.125734</ele>
        <time>2026-07-11T07:36:39.000Z</time>
      </trkpt>
      <trkpt lat="34.84996" lon="-82.294335">
        <ele>291.566112</ele>
        <time>2026-07-11T07:36:45.000Z</time>
      </trkpt>
      <trkpt lat="34.850151" lon="-82.293912">
        <ele>290.932061</ele>
        <time>2026-07-11T07:36:49.000Z</time>
      </trkpt>
      <trkpt lat="34.850773" lon="-82.292724">
        <ele>286.793782</ele>
        <time>2026-07-11T07:37:02.000Z</time>
      </trkpt>
      <trkpt lat="34.851312" lon="-82.291747">
        <ele>283.601252</ele>
        <time>2026-07-11T07:37:13.000Z</time>
      </trkpt>
      <trkpt lat="34.851358" lon="-82.291644">
        <ele>283.295243</ele>
        <time>2026-07-11T07:37:14.000Z</time>
      </trkpt>
      <trkpt lat="34.851565" lon="-82.291236">
        <ele>282.123114</ele>
        <time>2026-07-11T07:37:18.000Z</time>
      </trkpt>
      <trkpt lat="34.851615" lon="-82.290878">
        <ele>281.25847</ele>
        <time>2026-07-11T07:37:21.000Z</time>
      </trkpt>
      <trkpt lat="34.851576" lon="-82.290304">
        <ele>279.825222</ele>
        <time>2026-07-11T07:37:26.000Z</time>
      </trkpt>
      <trkpt lat="34.851566" lon="-82.290125">
        <ele>279.408024</ele>
        <time>2026-07-11T07:37:28.000Z</time>
      </trkpt>
      <trkpt lat="34.851534" lon="-82.289592">
        <ele>278.284078</ele>
        <time>2026-07-11T07:37:33.000Z</time>
      </trkpt>
      <trkpt lat="34.851508" lon="-82.28895">
        <ele>276.912232</ele>
        <time>2026-07-11T07:37:39.000Z</time>
      </trkpt>
      <trkpt lat="34.851488" lon="-82.28856">
        <ele>276.099558</ele>
        <time>2026-07-11T07:37:43.000Z</time>
      </trkpt>
      <trkpt lat="34.851441" lon="-82.288034">
        <ele>274.990553</ele>
        <time>2026-07-11T07:37:48.000Z</time>
      </trkpt>
      <trkpt lat="34.851426" lon="-82.287565">
        <ele>273.483784</ele>
        <time>2026-07-11T07:37:52.000Z</time>
      </trkpt>
      <trkpt lat="34.851449" lon="-82.287362">
        <ele>272.765767</ele>
        <time>2026-07-11T07:37:54.000Z</time>
      </trkpt>
      <trkpt lat="34.851824" lon="-82.285927">
        <ele>267.635135</ele>
        <time>2026-07-11T07:38:08.000Z</time>
      </trkpt>
      <trkpt lat="34.851844" lon="-82.285804">
        <ele>267.349159</ele>
        <time>2026-07-11T07:38:09.000Z</time>
      </trkpt>
      <trkpt lat="34.851967" lon="-82.285314">
        <ele>267.766147</ele>
        <time>2026-07-11T07:38:14.000Z</time>
      </trkpt>
      <trkpt lat="34.85207" lon="-82.285004">
        <ele>268.038176</ele>
        <time>2026-07-11T07:38:17.000Z</time>
      </trkpt>
      <trkpt lat="34.852218" lon="-82.284728">
        <ele>268.304023</ele>
        <time>2026-07-11T07:38:20.000Z</time>
      </trkpt>
      <trkpt lat="34.85239" lon="-82.284463">
        <ele>268.583581</ele>
        <time>2026-07-11T07:38:23.000Z</time>
      </trkpt>
      <trkpt lat="34.852911" lon="-82.283833">
        <ele>269.541298</ele>
        <time>2026-07-11T07:38:31.000Z</time>
      </trkpt>
      <trkpt lat="34.853109" lon="-82.283651">
        <ele>270.083967</ele>
        <time>2026-07-11T07:38:34.000Z</time>
      </trkpt>
      <trkpt lat="34.853369" lon="-82.283453">
        <ele>270.769114</ele>
        <time>2026-07-11T07:38:37.000Z</time>
      </trkpt>
      <trkpt lat="34.853646" lon="-82.283297">
        <ele>271.417179</ele>
        <time>2026-07-11T07:38:40.000Z</time>
      </trkpt>
      <trkpt lat="34.853858" lon="-82.283196">
        <ele>271.914078</ele>
        <time>2026-07-11T07:38:43.000Z</time>
      </trkpt>
      <trkpt lat="34.853945" lon="-82.283158">
        <ele>272.096471</ele>
        <time>2026-07-11T07:38:44.000Z</time>
      </trkpt>
      <trkpt lat="34.854596" lon="-82.282829">
        <ele>273.475475</ele>
        <time>2026-07-11T07:38:52.000Z</time>
      </trkpt>
      <trkpt lat="34.855175" lon="-82.282545">
        <ele>274.538037</ele>
        <time>2026-07-11T07:38:59.000Z</time>
      </trkpt>
      <trkpt lat="34.855315" lon="-82.282486">
        <ele>274.789504</ele>
        <time>2026-07-11T07:39:01.000Z</time>
      </trkpt>
      <trkpt lat="34.855542" lon="-82.282371">
        <ele>275.199662</ele>
        <time>2026-07-11T07:39:04.000Z</time>
      </trkpt>
      <trkpt lat="34.856204" lon="-82.282036">
        <ele>275.539005</ele>
        <time>2026-07-11T07:39:12.000Z</time>
      </trkpt>
      <trkpt lat="34.856324" lon="-82.281929">
        <ele>275.254283</ele>
        <time>2026-07-11T07:39:14.000Z</time>
      </trkpt>
      <trkpt lat="34.856463" lon="-82.281689">
        <ele>274.787108</ele>
        <time>2026-07-11T07:39:17.000Z</time>
      </trkpt>
      <trkpt lat="34.855577" lon="-82.281423">
        <ele>272.951689</ele>
        <time>2026-07-11T07:39:27.000Z</time>
      </trkpt>
      <trkpt lat="34.854425" lon="-82.28097">
        <ele>268.630513</ele>
        <time>2026-07-11T07:39:40.000Z</time>
      </trkpt>
      <trkpt lat="34.854032" lon="-82.280854">
        <ele>266.936121</ele>
        <time>2026-07-11T07:39:44.000Z</time>
      </trkpt>
      <trkpt lat="34.853077" lon="-82.280666">
        <ele>265.110256</ele>
        <time>2026-07-11T07:39:55.000Z</time>
      </trkpt>
      <trkpt lat="34.852716" lon="-82.28051">
        <ele>265.180763</ele>
        <time>2026-07-11T07:39:59.000Z</time>
      </trkpt>
      <trkpt lat="34.852308" lon="-82.280265">
        <ele>265.25993</ele>
        <time>2026-07-11T07:40:04.000Z</time>
      </trkpt>
      <trkpt lat="34.852179" lon="-82.280152">
        <ele>265.288157</ele>
        <time>2026-07-11T07:40:06.000Z</time>
      </trkpt>
      <trkpt lat="34.851451" lon="-82.279575">
        <ele>267.517332</ele>
        <time>2026-07-11T07:40:16.000Z</time>
      </trkpt>
      <trkpt lat="34.851257" lon="-82.279419">
        <ele>268.408819</ele>
        <time>2026-07-11T07:40:19.000Z</time>
      </trkpt>
      <trkpt lat="34.850905" lon="-82.279172">
        <ele>269.95873</ele>
        <time>2026-07-11T07:40:24.000Z</time>
      </trkpt>
      <trkpt lat="34.850392" lon="-82.278765">
        <ele>272.351876</ele>
        <time>2026-07-11T07:40:31.000Z</time>
      </trkpt>
      <trkpt lat="34.849998" lon="-82.278504">
        <ele>274.194312</ele>
        <time>2026-07-11T07:40:36.000Z</time>
      </trkpt>
      <trkpt lat="34.8489" lon="-82.277689">
        <ele>279.481327</ele>
        <time>2026-07-11T07:40:50.000Z</time>
      </trkpt>
      <trkpt lat="34.848477" lon="-82.277446">
        <ele>280.462613</ele>
        <time>2026-07-11T07:40:55.000Z</time>
      </trkpt>
      <trkpt lat="34.847909" lon="-82.277214">
        <ele>281.550253</ele>
        <time>2026-07-11T07:41:02.000Z</time>
      </trkpt>
      <trkpt lat="34.84701" lon="-82.27704">
        <ele>283.073764</ele>
        <time>2026-07-11T07:41:12.000Z</time>
      </trkpt>
      <trkpt lat="34.846891" lon="-82.277005">
        <ele>283.188038</ele>
        <time>2026-07-11T07:41:13.000Z</time>
      </trkpt>
      <trkpt lat="34.846464" lon="-82.277586">
        <ele>283.756563</ele>
        <time>2026-07-11T07:41:20.000Z</time>
      </trkpt>
      <trkpt lat="34.846322" lon="-82.277808">
        <ele>283.960441</ele>
        <time>2026-07-11T07:41:23.000Z</time>
      </trkpt>
      <trkpt lat="34.84576" lon="-82.278628">
        <ele>284.920156</ele>
        <time>2026-07-11T07:41:33.000Z</time>
      </trkpt>
      <trkpt lat="34.845017" lon="-82.279699">
        <ele>287.02723</ele>
        <time>2026-07-11T07:41:46.000Z</time>
      </trkpt>
      <trkpt lat="34.844859" lon="-82.279862">
        <ele>287.413075</ele>
        <time>2026-07-11T07:41:48.000Z</time>
      </trkpt>
      <trkpt lat="34.844754" lon="-82.279919">
        <ele>287.623626</ele>
        <time>2026-07-11T07:41:49.000Z</time>
      </trkpt>
      <trkpt lat="34.844374" lon="-82.279993">
        <ele>288.207337</ele>
        <time>2026-07-11T07:41:53.000Z</time>
      </trkpt>
      <trkpt lat="34.84343" lon="-82.279965">
        <ele>289.475567</ele>
        <time>2026-07-11T07:42:04.000Z</time>
      </trkpt>
      <trkpt lat="34.842353" lon="-82.279942">
        <ele>290.517488</ele>
        <time>2026-07-11T07:42:16.000Z</time>
      </trkpt>
      <trkpt lat="34.840205" lon="-82.279908">
        <ele>291.317443</ele>
        <time>2026-07-11T07:42:40.000Z</time>
      </trkpt>
      <trkpt lat="34.839332" lon="-82.279948">
        <ele>291.410132</ele>
        <time>2026-07-11T07:42:50.000Z</time>
      </trkpt>
      <trkpt lat="34.839053" lon="-82.27991">
        <ele>291.253579</ele>
        <time>2026-07-11T07:42:53.000Z</time>
      </trkpt>
      <trkpt lat="34.838909" lon="-82.279834">
        <ele>291.100997</ele>
        <time>2026-07-11T07:42:55.000Z</time>
      </trkpt>
      <trkpt lat="34.838813" lon="-82.279741">
        <ele>290.974153</ele>
        <time>2026-07-11T07:42:56.000Z</time>
      </trkpt>
      <trkpt lat="34.838172" lon="-82.278746">
        <ele>289.996051</ele>
        <time>2026-07-11T07:43:08.000Z</time>
      </trkpt>
      <trkpt lat="34.837953" lon="-82.278547">
        <ele>289.737584</ele>
        <time>2026-07-11T07:43:11.000Z</time>
      </trkpt>
      <trkpt lat="34.838686" lon="-82.277474">
        <ele>287.516219</ele>
        <time>2026-07-11T07:43:24.000Z</time>
      </trkpt>
      <trkpt lat="34.839097" lon="-82.276857">
        <ele>286.238403</ele>
        <time>2026-07-11T07:43:31.000Z</time>
      </trkpt>
      <trkpt lat="34.839192" lon="-82.276725">
        <ele>285.821894</ele>
        <time>2026-07-11T07:43:33.000Z</time>
      </trkpt>
      <trkpt lat="34.840097" lon="-82.275465">
        <ele>281.791457</ele>
        <time>2026-07-11T07:43:48.000Z</time>
      </trkpt>
      <trkpt lat="34.840394" lon="-82.275056">
        <ele>280.96964</ele>
        <time>2026-07-11T07:43:53.000Z</time>
      </trkpt>
      <trkpt lat="34.840735" lon="-82.274469">
        <ele>281.117633</ele>
        <time>2026-07-11T07:44:00.000Z</time>
      </trkpt>
      <trkpt lat="34.841" lon="-82.273916">
        <ele>281.245722</ele>
        <time>2026-07-11T07:44:06.000Z</time>
      </trkpt>
      <trkpt lat="34.841122" lon="-82.273609">
        <ele>281.315181</ele>
        <time>2026-07-11T07:44:09.000Z</time>
      </trkpt>
      <trkpt lat="34.841291" lon="-82.273293">
        <ele>281.488216</ele>
        <time>2026-07-11T07:44:12.000Z</time>
      </trkpt>
      <trkpt lat="34.841504" lon="-82.272837">
        <ele>282.266633</ele>
        <time>2026-07-11T07:44:17.000Z</time>
      </trkpt>
      <trkpt lat="34.841704" lon="-82.272512">
        <ele>282.904263</ele>
        <time>2026-07-11T07:44:21.000Z</time>
      </trkpt>
      <trkpt lat="34.842616" lon="-82.271389">
        <ele>284.743533</ele>
        <time>2026-07-11T07:44:35.000Z</time>
      </trkpt>
      <trkpt lat="34.842813" lon="-82.271158">
        <ele>284.800938</ele>
        <time>2026-07-11T07:44:38.000Z</time>
      </trkpt>
      <trkpt lat="34.843302" lon="-82.27055">
        <ele>284.941278</ele>
        <time>2026-07-11T07:44:46.000Z</time>
      </trkpt>
      <trkpt lat="34.844084" lon="-82.26963">
        <ele>284.571247</ele>
        <time>2026-07-11T07:44:58.000Z</time>
      </trkpt>
      <trkpt lat="34.844469" lon="-82.26924">
        <ele>284.170688</ele>
        <time>2026-07-11T07:45:04.000Z</time>
      </trkpt>
      <trkpt lat="34.844678" lon="-82.269048">
        <ele>283.958193</ele>
        <time>2026-07-11T07:45:07.000Z</time>
      </trkpt>
      <trkpt lat="34.844959" lon="-82.268804">
        <ele>283.675089</ele>
        <time>2026-07-11T07:45:11.000Z</time>
      </trkpt>
      <trkpt lat="34.845041" lon="-82.26875">
        <ele>283.608701</ele>
        <time>2026-07-11T07:45:12.000Z</time>
      </trkpt>
      <trkpt lat="34.845335" lon="-82.268483">
        <ele>282.960164</ele>
        <time>2026-07-11T07:45:16.000Z</time>
      </trkpt>
      <trkpt lat="34.845714" lon="-82.268194">
        <ele>282.161667</ele>
        <time>2026-07-11T07:45:21.000Z</time>
      </trkpt>
      <trkpt lat="34.846382" lon="-82.267645">
        <ele>280.718842</ele>
        <time>2026-07-11T07:45:30.000Z</time>
      </trkpt>
      <trkpt lat="34.847347" lon="-82.266617">
        <ele>277.518553</ele>
        <time>2026-07-11T07:45:44.000Z</time>
      </trkpt>
      <trkpt lat="34.847441" lon="-82.266517">
        <ele>277.210258</ele>
        <time>2026-07-11T07:45:45.000Z</time>
      </trkpt>
      <trkpt lat="34.847604" lon="-82.266337">
        <ele>276.656493</ele>
        <time>2026-07-11T07:45:47.000Z</time>
      </trkpt>
      <trkpt lat="34.848744" lon="-82.264701">
        <ele>272.540891</ele>
        <time>2026-07-11T07:46:07.000Z</time>
      </trkpt>
      <trkpt lat="34.848892" lon="-82.264548">
        <ele>272.111895</ele>
        <time>2026-07-11T07:46:09.000Z</time>
      </trkpt>
      <trkpt lat="34.849132" lon="-82.264351">
        <ele>271.485705</ele>
        <time>2026-07-11T07:46:12.000Z</time>
      </trkpt>
      <trkpt lat="34.849442" lon="-82.264143">
        <ele>270.669556</ele>
        <time>2026-07-11T07:46:16.000Z</time>
      </trkpt>
      <trkpt lat="34.850387" lon="-82.263562">
        <ele>268.258595</ele>
        <time>2026-07-11T07:46:28.000Z</time>
      </trkpt>
      <trkpt lat="34.850858" lon="-82.263355">
        <ele>267.078172</ele>
        <time>2026-07-11T07:46:34.000Z</time>
      </trkpt>
      <trkpt lat="34.851485" lon="-82.263131">
        <ele>265.375527</ele>
        <time>2026-07-11T07:46:41.000Z</time>
      </trkpt>
      <trkpt lat="34.851177" lon="-82.262511">
        <ele>263.823065</ele>
        <time>2026-07-11T07:46:48.000Z</time>
      </trkpt>
      <trkpt lat="34.851171" lon="-82.262497">
        <ele>263.82307</ele>
        <time>2026-07-11T07:46:48.000Z</time>
      </trkpt>
      <trkpt lat="34.850923" lon="-82.262011">
        <ele>262.717996</ele>
        <time>2026-07-11T07:46:53.000Z</time>
      </trkpt>
      <trkpt lat="34.850881" lon="-82.261933">
        <ele>262.604205</ele>
        <time>2026-07-11T07:46:54.000Z</time>
      </trkpt>
      <trkpt lat="34.85058" lon="-82.261358">
        <ele>261.76022</ele>
        <time>2026-07-11T07:47:00.000Z</time>
      </trkpt>
      <trkpt lat="34.850361" lon="-82.260875">
        <ele>261.08701</ele>
        <time>2026-07-11T07:47:05.000Z</time>
      </trkpt>
      <trkpt lat="34.850116" lon="-82.26041">
        <ele>260.414113</ele>
        <time>2026-07-11T07:47:10.000Z</time>
      </trkpt>
      <trkpt lat="34.850026" lon="-82.260186">
        <ele>260.138750338</ele>
        <time>2026-07-11T07:47:12.000Z</time>
      </trkpt>
      <trkpt lat="34.849831" lon="-82.25996">
        <ele>259.776691815</ele>
        <time>2026-07-11T07:47:15.000Z</time>
      </trkpt>
      <trkpt lat="34.849503" lon="-82.259817">
        <ele>259.308018119</ele>
        <time>2026-07-11T07:47:19.000Z</time>
      </trkpt>
      <trkpt lat="34.849396" lon="-82.259774">
        <ele>259.156437427</ele>
        <time>2026-07-11T07:47:20.000Z</time>
      </trkpt>
      <trkpt lat="34.849286" lon="-82.259727">
        <ele>258.999613106</ele>
        <time>2026-07-11T07:47:21.000Z</time>
      </trkpt>
    </trkseg>
  </trk>
</gpx>

<!--
Performance optimized by W3 Total Cache. Learn more: https://www.boldgrid.com/w3-total-cache/?utm_source=w3tc&utm_medium=footer_comment&utm_campaign=free_plugin

Page Caching using Disk: Enhanced{w3tc_pagecache_reject_reason} 

Served from: www.aquabike.world @ 2026-05-10 17:31:49 by W3 Total Cache
-->